默认 日期 大小 文件数 浏览量 最新下载 xml
24:21磁力链接相关资源由用户搜索指令自动获取,结果来源于网络,本站不存储任何资料,亦不承担任何责任,请于24小时内删除,搜索到13990个磁力,显示前4000条数据,用时31ms。
    {"[DeadFish] Vinland Saga - 21 [720p][AAC].mp4": 606657579, "[DeadFish] Vinland Saga - 22 [720p][AAC].mp4": 706601367, "[DeadFish] Vinland Saga - 23 [720p][AAC].mp4": 575580996, "[DeadFish] Vinland Saga - 24 [720p][AAC].mp4": 618002366}
创建时间: 2020-02-13 13:40:46 大小:2.33 GB 文件数量:4 热度:4 最近下载:2025-03-20 11:45:02
    {"lxj-tbwknbhan-21-02F4BB0ED-hd.mp4": 523306537, "lxj-tbwknbhan-22-017FAE82F-hd.mp4": 530423416, "lxj-tbwknbhan-23-02DC50F66-hd.mp4": 530365257, "lxj-tbwknbhan-24-01D7A95BF-hd.mp4": 525624823}
创建时间: 2020-02-17 13:55:28 大小:1.96 GB 文件数量:4 热度:22 最近下载:2025-09-18 21:41:08
    {"2048QR二维码.png": 471, "激情隨時看.gif": 44950, "美女一对一.gif": 1907156, "同城一YQ交友.gif": 239252, "台湾美女主播.jpg": 137232, "凤凰娛樂~vip1135.url": 253, "凤凰娛樂~vip1196.url": 253, "凤凰娛樂~vip3309.url": 253, "2048社区扫码获取地址.png": 471, "小草最新地址扫码获取.jpg": 155789, "点击观看 房间火爆uuf39.mp4 ...
创建时间: 2020-02-21 10:25:06 大小:518.73 MB 文件数量:25 热度:6 最近下载:2025-03-23 09:47:01
    ... .119�@?��???�@24?.jpg": 28231, "speedpluss.us� ...
创建时间: 2020-02-22 00:29:33 大小:986.17 MB 文件数量:94 热度:13 最近下载:2025-07-31 10:18:03
    {"2048QR二维码.png": 471, "激情隨時看.gif": 44950, "美女一对一.gif": 1907156, "同城一YQ交友.gif": 239252, "台湾美女主播.jpg": 137232, "凤凰娛樂~vip1135.url": 253, "凤凰娛樂~vip1196.url": 253, "凤凰娛樂~vip3309.url": 253, "2048社区扫码获取地址.png": 471, "小草最新地址扫码获取.jpg": 155789, "点击观看 房间火爆uuf39.mp4 ...
创建时间: 2020-02-23 06:27:00 大小:1.21 GB 文件数量:25 热度:7 最近下载:2025-03-23 09:49:02
    ... , "[Kamigami-Raws] Slam Dunk - 21 (HDTV x264 1440×1080 AAC ... 1143177013, "[Kamigami-Raws] Slam Dunk - 24 (HDTV x264 1440×1080 AAC ... 1255839657, "[Kamigami-Raws] Slam Dunk - 21 (HDTV x264 1440×1080 AAC ... , "[Kamigami-Raws] Slam Dunk - 21 (HDTV x264 1440×1080 AAC ...
创建时间: 2020-02-23 18:38:25 大小:4.42 GB 文件数量:17 热度:10 最近下载:2025-05-12 23:32:02
    {"2048QR二维码.png": 471, "激情隨時看.gif": 44950, "美女一对一.gif": 1907156, "同城一YQ交友.gif": 239252, "台湾美女主播.jpg": 137232, "凤凰娛樂~vip1135.url": 253, "凤凰娛樂~vip1196.url": 253, "凤凰娛樂~vip3309.url": 253, "2048社区扫码获取地址.png": 471, "小草最新地址扫码获取.jpg": 155789, "点击观看 房间火爆uuf39.mp4 ...
创建时间: 2020-02-24 16:33:12 大小:954.95 MB 文件数量:25 热度:5 最近下载:2025-03-23 09:46:02
    {"2048QR二维码.png": 471, "激情隨時看.gif": 44950, "美女一对一.gif": 1907156, "同城一YQ交友.gif": 239252, "台湾美女主播.jpg": 137232, "凤凰娛樂~vip1135.url": 253, "凤凰娛樂~vip1196.url": 253, "凤凰娛樂~vip3309.url": 253, "2048社区扫码获取地址.png": 471, "小草最新地址扫码获取.jpg": 155789, "点击观看 房间火爆uuf39.mp4 ...
创建时间: 2020-02-24 18:16:59 大小:920.85 MB 文件数量:25 热度:7 最近下载:2025-03-23 09:47:01
    ... , "CYW.重返20岁.21集.2018.高码1080P ... , "CYW.重返20岁.24集.2018.高码1080P ...
创建时间: 2020-02-25 21:05:55 大小:7.94 GB 文件数量:13 热度:35 最近下载:2025-10-06 09:22:02
    ... .NHN벅스 2020.02.21).jpg": 308153}, "월터 ( ... 표지 (RIAK 2020.02.21).jpg": 319178}, "최슬우 ... 직(KMUSIC).RIAK 2020.02.24).jpg": 162735}, "진혁 - 차 ... 표지 (RIAK 2020.02.21).jpg": 103550}, "다이얼 ... 브런치 2020.02.21).jpg": 389076}, "Musicsum(뮤 ... 미디어 2020.02.21).jpg": 577136, "Musicsum(뮤 ...
创建时间: 2020-02-26 10:26:29 大小:5.39 GB 文件数量:685 热度:12 最近下载:2025-10-14 22:52:04
    ... 2043932}, "01 - Piano Concerto No.24 in C minor K.491 ... 53617498, "05 - Piano Concerto No.21 in C major K.467 ... , "02 - Piano Concerto No.24 in C minor K.491 ... 31249530, "04 - Piano Concerto No.21 in C major K.467 ... , "06 - Piano Concerto No.21 in C major K.467 ...
创建时间: 2020-02-28 00:52:33 大小:202.95 MB 文件数量:10 热度:2 最近下载:2023-12-26 05:00:23
    {"001.jpg": 30432, "002.jpg": 172346, "003.jpg": 152085, "004.jpg": 155463, "005.jpg": 185578, "006.jpg": 231905, "007.jpg": 185437, "008.jpg": 144088, "009.jpg": 165920, "010.jpg": 176914, "011.jpg": 192964, "012.jpg": 206797, "013.jpg": 188680, "014.jpg ...
创建时间: 2020-03-05 00:46:49 大小:116.67 MB 文件数量:452 热度:4 最近下载:2025-08-09 15:54:02
    {"poster.jpg": 64543, "taxisd.mp4": 477337702, "screens.jpg": 168588, "RARBG.com.txt": 33}
创建时间: 2020-03-14 09:22:34 大小:455.45 MB 文件数量:4 热度:5 最近下载:2025-03-16 08:43:02
    ... .1992.TVRip.mkv": 242832623, "Omer.(24.iz.26).Meduza.UKR.1992 ... .1992.TVRip.mkv": 194928264, "Omer.(21.iz.26).Zvezdnij.Korabl.UKR ...
创建时间: 2020-03-14 19:27:34 大小:3.12 GB 文件数量:15 热度:22 最近下载:2025-08-23 16:47:02
    {"2048QR二维码.png": 471, "激情隨時看.gif": 44950, "美女一对一.gif": 1907156, "同城一YQ交友.gif": 239252, "台湾美女主播.jpg": 137232, "凤凰娛樂~vip1135.url": 253, "凤凰娛樂~vip1196.url": 253, "凤凰娛樂~vip3309.url": 253, "2048社区扫码获取地址.png": 471, "小草最新地址扫码获取.jpg": 155789, "点击观看 房间火爆uuf39.mp4 ...
创建时间: 2020-03-22 09:31:39 大小:784.91 MB 文件数量:25 热度:10 最近下载:2025-03-26 12:43:01
    {"2048QR二维码.png": 471, "激情隨時看.gif": 44950, "美女一对一.gif": 1907156, "同城一YQ交友.gif": 239252, "台湾美女主播.jpg": 137232, "凤凰娛樂~vip1135.url": 253, "凤凰娛樂~vip1196.url": 253, "凤凰娛樂~vip3309.url": 253, "2048社区扫码获取地址.png": 471, "小草最新地址扫码获取.jpg": 155789, "点击观看 房间火爆uuf39.mp4 ...
创建时间: 2020-03-23 00:30:43 大小:271.52 MB 文件数量:190 热度:11 最近下载:2025-03-15 22:56:02
    {"네크로맨스 1~21, 23~24화.zip": 173632372, "최초배포지 확인 후 시청하기.txt": 671}
创建时间: 2020-03-23 03:03:41 大小:165.59 MB 文件数量:2 热度:3 最近下载:2023-12-28 17:26:03
    {"Operacion Pacifico Lat 1x19-720-kusko.avi": 1084784232, "Operacion Pacifico Lat 1x20-720-kusko.avi": 1091331592, "Operacion Pacifico Lat 1x21-720-kusko.avi": 1096855630, "Operacion Pacifico Lat 1x22-720-kusko.avi": 1121666868, "Operacion Pacifico Lat ...
创建时间: 2020-03-23 05:20:35 大小:6.18 GB 文件数量:6 热度:14 最近下载:2025-09-18 19:07:02
    {"2048QR二维码.png": 471, "激情隨時看.gif": 44950, "美女一对一.gif": 1907156, "同城一YQ交友.gif": 239252, "台湾美女主播.jpg": 137232, "凤凰娛樂~vip1135.url": 253, "凤凰娛樂~vip1196.url": 253, "凤凰娛樂~vip3309.url": 253, "2048社区扫码获取地址.png": 471, "小草最新地址扫码获取.jpg": 155789, "点击观看 房间火爆uuf39.mp4 ...
创建时间: 2020-03-24 19:43:09 大小:858.97 MB 文件数量:25 热度:11 最近下载:2025-03-15 20:43:02
    {"2048QR二维码.png": 471, "激情隨時看.gif": 44950, "美女一对一.gif": 1907156, "同城一YQ交友.gif": 239252, "台湾美女主播.jpg": 137232, "凤凰娛樂~vip1135.url": 253, "凤凰娛樂~vip1196.url": 253, "凤凰娛樂~vip3309.url": 253, "2048社区扫码获取地址.png": 471, "小草最新地址扫码获取.jpg": 155789, "点击观看 房间火爆uuf39.mp4 ...
创建时间: 2020-03-25 08:17:42 大小:175.7 MB 文件数量:27 热度:8 最近下载:2025-03-15 22:19:03